Time;durP1;ratioP1;P1;durP2;ratioP2;P2;SDS_P1;SDS_P2;PMS_P1;PMS_P2;Temp;Humidity;BMP_temperature;BMP_pressure;BME280_temperature;BME280_humidity;BME280_pressure;Samples;Min_cycle;Max_cycle;Signal;HPM_P1;HPM_P2
2022/01/10 00:00:31;;;;;;;17.23;8.55;;;;;;;;;;5014838;28;20060;-63
2022/01/10 00:02:58;;;;;;;21.60;9.55;;;;;;;;;;5010441;28;20058;-63
2022/01/10 00:05:25;;;;;;;22.17;8.77;;;;;;;;;;5024535;28;20136;-63
2022/01/10 00:07:51;;;;;;;19.75;8.98;;;;;;;;;;5013086;28;20045;-63
2022/01/10 00:10:18;;;;;;;18.13;8.95;;;;;;;;;;5022500;28;20042;-62
2022/01/10 00:12:44;;;;;;;21.75;8.60;;;;;;;;;;5016696;28;20687;-64
2022/01/10 00:15:11;;;;;;;22.02;8.68;;;;;;;;;;5009784;28;20527;-62
2022/01/10 00:17:38;;;;;;;20.05;9.43;;;;;;;;;;5017823;28;20350;-63
2022/01/10 00:20:06;;;;;;;20.17;9.00;;;;;;;;;;5015045;28;20052;-63
2022/01/10 00:22:32;;;;;;;20.02;8.55;;;;;;;;;;5026579;28;20050;-62
2022/01/10 00:24:58;;;;;;;20.83;9.57;;;;;;;;;;5013199;28;20049;-63
2022/01/10 00:27:25;;;;;;;25.80;9.45;;;;;;;;;;5009933;28;20053;-63
2022/01/10 00:29:51;;;;;;;18.08;9.25;;;;;;;;;;5017749;28;20052;-63
2022/01/10 00:32:17;;;;;;;22.92;9.70;;;;;;;;;;5010611;28;20049;-64
2022/01/10 00:34:44;;;;;;;22.90;8.40;;;;;;;;;;5019848;28;20064;-63
2022/01/10 00:37:11;;;;;;;17.15;8.40;;;;;;;;;;5016425;28;20050;-63
2022/01/10 00:39:37;;;;;;;18.85;9.20;;;;;;;;;;5017246;28;20050;-63
2022/01/10 00:42:03;;;;;;;20.42;8.05;;;;;;;;;;5013335;28;20056;-62
2022/01/10 00:44:32;;;;;;;18.30;8.30;;;;;;;;;;5012892;28;20049;-64
2022/01/10 00:46:58;;;;;;;17.80;8.30;;;;;;;;;;5022403;28;20045;-62
2022/01/10 00:49:24;;;;;;;16.27;7.75;;;;;;;;;;5008675;28;20095;-62
2022/01/10 00:51:51;;;;;;;24.60;8.43;;;;;;;;;;5022423;28;20057;-65
2022/01/10 00:54:17;;;;;;;20.15;8.45;;;;;;;;;;5003021;28;20064;-65
2022/01/10 00:56:43;;;;;;;22.13;9.25;;;;;;;;;;5023007;28;20057;-65
2022/01/10 00:59:09;;;;;;;19.50;8.15;;;;;;;;;;5016779;28;20050;-65
2022/01/10 01:01:36;;;;;;;18.83;8.13;;;;;;;;;;5015368;28;20060;-65
2022/01/10 01:04:03;;;;;;;15.18;7.35;;;;;;;;;;5018532;28;20422;-63
2022/01/10 01:06:29;;;;;;;14.73;7.72;;;;;;;;;;5013967;28;20813;-65
2022/01/10 01:09:00;;;;;;;20.92;7.93;;;;;;;;;;5014790;28;20053;-64
2022/01/10 01:14:00;;;;;;;16.45;7.38;;;;;;;;;;5019476;28;20049;-65
2022/01/10 01:16:43;;;;;;;21.27;7.90;;;;;;;;;;5024199;28;20056;-65
2022/01/10 01:24:26;;;;;;;12.55;7.00;;;;;;;;;;5010017;28;20524;-64
2022/01/10 01:26:54;;;;;;;17.25;7.38;;;;;;;;;;5021404;28;20053;-62
2022/01/10 01:29:22;;;;;;;19.35;7.57;;;;;;;;;;5010864;28;20053;-62
2022/01/10 01:31:48;;;;;;;17.20;8.07;;;;;;;;;;5021626;28;20038;-62
2022/01/10 01:34:15;;;;;;;15.63;7.35;;;;;;;;;;5010934;28;20045;-64
2022/01/10 01:36:45;;;;;;;20.13;8.20;;;;;;;;;;5012367;28;20072;-64
2022/01/10 01:39:22;;;;;;;21.45;7.88;;;;;;;;;;4999324;28;20058;-64
2022/01/10 01:41:50;;;;;;;13.60;7.32;;;;;;;;;;5020368;28;20045;-64
2022/01/10 01:44:17;;;;;;;16.10;7.55;;;;;;;;;;5019944;28;20415;-64
2022/01/10 01:46:43;;;;;;;16.33;7.88;;;;;;;;;;5011252;28;20509;-64
2022/01/10 01:49:10;;;;;;;17.80;8.30;;;;;;;;;;5014310;28;20456;-64
2022/01/10 01:51:37;;;;;;;16.55;7.85;;;;;;;;;;5005943;28;20083;-64
2022/01/10 01:54:04;;;;;;;17.00;7.65;;;;;;;;;;5021159;28;20068;-64
2022/01/10 01:56:30;;;;;;;15.52;7.38;;;;;;;;;;5015015;28;20444;-64
2022/01/10 01:58:57;;;;;;;19.35;8.18;;;;;;;;;;5018867;28;20053;-64
2022/01/10 02:01:24;;;;;;;22.77;8.77;;;;;;;;;;5023248;28;20509;-64
2022/01/10 02:03:50;;;;;;;21.08;8.60;;;;;;;;;;5013932;28;20052;-64
2022/01/10 02:06:17;;;;;;;18.58;8.23;;;;;;;;;;5017008;28;20618;-64
2022/01/10 02:08:44;;;;;;;19.20;8.20;;;;;;;;;;5016151;28;20096;-64
2022/01/10 02:11:12;;;;;;;15.73;7.38;;;;;;;;;;5022341;28;20045;-64
2022/01/10 02:13:39;;;;;;;15.52;7.85;;;;;;;;;;5019601;28;20059;-65
2022/01/10 02:16:08;;;;;;;22.92;8.38;;;;;;;;;;5020335;28;20512;-65
2022/01/10 02:18:35;;;;;;;19.23;8.95;;;;;;;;;;5021444;28;20057;-65
2022/01/10 02:21:05;;;;;;;11.75;7.25;;;;;;;;;;4999182;28;20045;-64
2022/01/10 02:23:32;;;;;;;30.02;10.18;;;;;;;;;;5028007;28;20061;-64
2022/01/10 02:25:58;;;;;;;20.50;8.95;;;;;;;;;;5015890;28;20088;-65
2022/01/10 02:28:25;;;;;;;15.23;7.97;;;;;;;;;;5028681;28;20060;-65
2022/01/10 02:30:56;;;;;;;14.90;7.72;;;;;;;;;;5011399;28;20057;-64
2022/01/10 02:33:23;;;;;;;17.85;8.10;;;;;;;;;;5021678;28;20525;-64
2022/01/10 02:36:02;;;;;;;16.60;7.78;;;;;;;;;;5019608;28;20326;-65
2022/01/10 02:38:29;;;;;;;20.95;8.57;;;;;;;;;;5016894;28;20488;-65
2022/01/10 02:40:56;;;;;;;17.40;8.23;;;;;;;;;;5023638;28;20056;-64
2022/01/10 02:43:23;;;;;;;20.50;8.93;;;;;;;;;;5015392;28;20478;-64
2022/01/10 02:45:49;;;;;;;17.77;8.38;;;;;;;;;;5019599;28;20045;-64
2022/01/10 02:48:15;;;;;;;27.58;9.13;;;;;;;;;;5023655;28;20041;-65
2022/01/10 02:50:42;;;;;;;20.60;8.77;;;;;;;;;;5022426;28;20045;-64
2022/01/10 02:53:08;;;;;;;19.45;9.23;;;;;;;;;;5028711;28;20041;-65
2022/01/10 02:55:35;;;;;;;21.00;9.70;;;;;;;;;;5015677;28;20136;-64
2022/01/10 02:58:01;;;;;;;18.27;8.98;;;;;;;;;;5019797;28;20073;-65
2022/01/10 03:00:27;;;;;;;22.40;10.35;;;;;;;;;;5009729;28;20049;-64
2022/01/10 03:02:54;;;;;;;22.08;9.45;;;;;;;;;;5025813;28;20366;-64
2022/01/10 03:05:23;;;;;;;20.10;9.65;;;;;;;;;;5023258;28;20487;-65
2022/01/10 03:07:50;;;;;;;27.17;10.20;;;;;;;;;;5027301;28;20046;-65
2022/01/10 03:10:16;;;;;;;24.40;10.18;;;;;;;;;;5022954;28;20045;-65
2022/01/10 03:12:43;;;;;;;27.08;12.00;;;;;;;;;;5011369;28;20049;-65
2022/01/10 03:15:10;;;;;;;20.27;10.30;;;;;;;;;;5021384;28;20228;-64
2022/01/10 03:17:37;;;;;;;19.77;10.15;;;;;;;;;;5020295;28;20358;-64
2022/01/10 03:20:04;;;;;;;20.98;9.85;;;;;;;;;;5023820;28;20041;-64
2022/01/10 03:22:31;;;;;;;20.80;10.20;;;;;;;;;;5021560;28;20054;-64
2022/01/10 03:24:58;;;;;;;20.85;10.40;;;;;;;;;;5022006;28;20372;-64
2022/01/10 03:27:25;;;;;;;23.33;10.45;;;;;;;;;;5012435;28;20056;-64
2022/01/10 03:29:52;;;;;;;25.80;10.93;;;;;;;;;;5020200;28;20060;-65
2022/01/10 03:32:18;;;;;;;19.85;10.32;;;;;;;;;;5023816;28;20054;-64
2022/01/10 03:34:44;;;;;;;19.88;10.00;;;;;;;;;;5019777;28;20058;-64
2022/01/10 03:37:11;;;;;;;27.92;10.80;;;;;;;;;;5023309;28;20152;-64
2022/01/10 03:39:38;;;;;;;20.88;10.18;;;;;;;;;;5014282;28;20045;-65
2022/01/10 03:42:04;;;;;;;17.00;10.43;;;;;;;;;;5018903;28;20047;-65
2022/01/10 03:44:30;;;;;;;21.58;10.10;;;;;;;;;;5027700;28;20050;-64
2022/01/10 03:46:57;;;;;;;18.73;10.73;;;;;;;;;;5016363;28;20049;-65
2022/01/10 03:49:24;;;;;;;18.35;9.93;;;;;;;;;;5025680;28;20053;-65
2022/01/10 03:51:52;;;;;;;21.75;10.50;;;;;;;;;;5014754;28;20042;-65
2022/01/10 03:54:18;;;;;;;21.58;9.80;;;;;;;;;;5022571;28;20057;-64
2022/01/10 03:56:44;;;;;;;22.73;10.88;;;;;;;;;;5009952;28;20068;-64
2022/01/10 03:59:11;;;;;;;17.92;9.95;;;;;;;;;;5025023;28;20046;-65
2022/01/10 04:01:39;;;;;;;18.52;10.43;;;;;;;;;;5023322;28;20061;-65
2022/01/10 04:04:06;;;;;;;20.77;9.73;;;;;;;;;;5016457;28;20053;-64
2022/01/10 04:06:33;;;;;;;19.48;10.35;;;;;;;;;;5023783;28;20054;-65
2022/01/10 04:08:59;;;;;;;17.17;9.88;;;;;;;;;;5009228;28;20068;-65
2022/01/10 04:11:26;;;;;;;21.95;10.48;;;;;;;;;;5021306;28;20053;-65
2022/01/10 04:13:52;;;;;;;18.45;10.48;;;;;;;;;;5012755;28;20041;-63
2022/01/10 04:16:18;;;;;;;20.02;10.63;;;;;;;;;;5025083;28;20577;-63
2022/01/10 04:18:45;;;;;;;25.20;10.80;;;;;;;;;;5024207;28;20060;-63
2022/01/10 04:21:11;;;;;;;25.65;11.07;;;;;;;;;;5012650;28;20157;-63
2022/01/10 04:23:37;;;;;;;22.05;11.30;;;;;;;;;;5014252;28;20064;-65
2022/01/10 04:26:04;;;;;;;21.70;10.35;;;;;;;;;;5016708;28;20069;-64
2022/01/10 04:28:30;;;;;;;23.42;11.68;;;;;;;;;;5026009;28;20061;-63
2022/01/10 04:30:57;;;;;;;17.95;8.90;;;;;;;;;;5013812;28;20491;-64
2022/01/10 04:33:28;;;;;;;26.02;12.15;;;;;;;;;;5022999;28;20045;-63
2022/01/10 04:35:55;;;;;;;25.85;12.00;;;;;;;;;;5027202;28;20052;-64
2022/01/10 04:38:21;;;;;;;25.15;12.35;;;;;;;;;;5010789;28;20049;-63
2022/01/10 04:40:48;;;;;;;23.92;11.30;;;;;;;;;;5023891;28;20049;-65
2022/01/10 04:43:14;;;;;;;22.02;11.80;;;;;;;;;;5017347;28;20446;-63
2022/01/10 04:45:42;;;;;;;23.88;11.68;;;;;;;;;;5025303;28;20140;-64
2022/01/10 04:48:08;;;;;;;20.90;11.53;;;;;;;;;;5014052;28;20053;-63
2022/01/10 04:53:16;;;;;;;21.75;10.45;;;;;;;;;;5021170;28;20045;-65
2022/01/10 04:55:42;;;;;;;19.85;12.02;;;;;;;;;;5019164;28;20056;-65
2022/01/10 04:58:09;;;;;;;21.60;11.88;;;;;;;;;;5023213;28;20057;-65
2022/01/10 05:00:35;;;;;;;23.25;12.32;;;;;;;;;;5017809;28;20046;-63
2022/01/10 05:03:01;;;;;;;21.70;12.27;;;;;;;;;;5017422;28;20194;-66
2022/01/10 05:05:28;;;;;;;24.35;12.13;;;;;;;;;;5014781;28;20147;-65
2022/01/10 05:07:55;;;;;;;18.50;11.50;;;;;;;;;;5018283;28;20052;-65
2022/01/10 05:10:21;;;;;;;22.98;11.10;;;;;;;;;;5021571;28;20248;-65
2022/01/10 05:12:47;;;;;;;22.30;11.32;;;;;;;;;;5015850;28;20093;-65
2022/01/10 05:15:13;;;;;;;24.13;12.27;;;;;;;;;;5022811;28;20386;-64
2022/01/10 05:17:40;;;;;;;31.02;12.63;;;;;;;;;;5009551;28;20067;-65
2022/01/10 05:20:06;;;;;;;24.50;12.68;;;;;;;;;;5020472;28;20049;-64
2022/01/10 05:22:33;;;;;;;26.67;11.88;;;;;;;;;;5015283;28;20057;-64
2022/01/10 05:24:59;;;;;;;23.00;12.20;;;;;;;;;;5024726;28;20577;-64
2022/01/10 05:27:25;;;;;;;22.23;11.20;;;;;;;;;;5022168;28;20141;-65
2022/01/10 05:29:51;;;;;;;24.95;11.70;;;;;;;;;;5015746;28;21436;-65
2022/01/10 05:32:18;;;;;;;18.65;10.02;;;;;;;;;;5015928;28;20362;-65
2022/01/10 05:34:44;;;;;;;28.63;12.65;;;;;;;;;;5018238;28;20045;-65
2022/01/10 05:37:10;;;;;;;25.25;12.15;;;;;;;;;;5027024;28;20049;-65
2022/01/10 05:39:36;;;;;;;21.58;12.30;;;;;;;;;;5014110;28;20057;-65
2022/01/10 05:42:03;;;;;;;27.15;13.00;;;;;;;;;;5024660;28;20403;-65
2022/01/10 05:44:29;;;;;;;20.67;11.85;;;;;;;;;;5015927;28;20284;-65
2022/01/10 05:46:58;;;;;;;22.17;12.30;;;;;;;;;;5013565;28;20041;-65
2022/01/10 05:49:29;;;;;;;22.77;12.82;;;;;;;;;;5025407;28;20395;-64
2022/01/10 05:51:55;;;;;;;22.42;12.82;;;;;;;;;;5025067;28;20049;-65
2022/01/10 05:54:22;;;;;;;26.00;12.23;;;;;;;;;;5024584;28;20054;-65
2022/01/10 05:56:48;;;;;;;28.92;12.70;;;;;;;;;;5019392;28;20053;-64
2022/01/10 05:59:14;;;;;;;22.70;13.23;;;;;;;;;;5016166;28;20056;-65
2022/01/10 06:01:42;;;;;;;23.65;12.20;;;;;;;;;;5022713;28;20057;-65
2022/01/10 06:04:09;;;;;;;28.48;12.38;;;;;;;;;;5017348;28;20049;-64
2022/01/10 06:06:36;;;;;;;22.13;13.23;;;;;;;;;;5024946;28;20056;-64
2022/01/10 06:09:03;;;;;;;21.45;11.93;;;;;;;;;;5017507;28;20046;-65
2022/01/10 06:11:29;;;;;;;23.83;12.90;;;;;;;;;;5027410;28;20057;-65
2022/01/10 06:13:55;;;;;;;22.65;12.13;;;;;;;;;;5011705;28;20040;-65
2022/01/10 06:16:22;;;;;;;22.63;12.57;;;;;;;;;;5026312;28;20057;-66
2022/01/10 06:18:48;;;;;;;22.60;13.93;;;;;;;;;;5022114;28;20071;-65
2022/01/10 06:21:14;;;;;;;22.10;13.73;;;;;;;;;;5022621;28;20060;-64
2022/01/10 06:23:40;;;;;;;28.85;13.85;;;;;;;;;;5023787;28;20072;-65
2022/01/10 06:26:07;;;;;;;22.65;13.48;;;;;;;;;;5012852;28;20044;-65
2022/01/10 06:28:33;;;;;;;23.60;13.02;;;;;;;;;;5017756;28;20057;-65
2022/01/10 06:30:59;;;;;;;23.67;14.07;;;;;;;;;;5021628;28;20057;-65
2022/01/10 06:33:26;;;;;;;25.83;13.13;;;;;;;;;;5017116;28;20057;-65
2022/01/10 06:35:52;;;;;;;23.90;13.43;;;;;;;;;;5022530;28;20050;-65
2022/01/10 06:38:18;;;;;;;24.10;14.10;;;;;;;;;;5019454;28;20128;-64
2022/01/10 06:40:45;;;;;;;21.02;12.82;;;;;;;;;;5018497;28;20485;-64
2022/01/10 06:43:11;;;;;;;25.50;14.07;;;;;;;;;;5017081;28;20059;-64
2022/01/10 06:45:37;;;;;;;26.50;14.52;;;;;;;;;;5024410;28;20053;-64
2022/01/10 06:48:04;;;;;;;21.45;13.73;;;;;;;;;;5023535;28;20051;-64
2022/01/10 06:50:31;;;;;;;32.53;16.02;;;;;;;;;;5020370;28;20061;-65
2022/01/10 06:52:57;;;;;;;26.88;14.65;;;;;;;;;;5026495;28;20048;-64
2022/01/10 06:55:24;;;;;;;24.83;14.27;;;;;;;;;;5012163;28;20050;-64
2022/01/10 06:57:50;;;;;;;32.28;17.08;;;;;;;;;;5024255;28;20080;-64
2022/01/10 07:00:16;;;;;;;29.27;17.80;;;;;;;;;;5016453;28;20045;-65
2022/01/10 07:02:43;;;;;;;31.70;16.55;;;;;;;;;;5024608;28;20540;-64
2022/01/10 07:05:10;;;;;;;26.50;15.20;;;;;;;;;;5024130;28;20141;-64
2022/01/10 07:07:37;;;;;;;23.52;14.50;;;;;;;;;;5013836;28;20084;-64
2022/01/10 07:10:04;;;;;;;27.05;15.05;;;;;;;;;;5018516;28;20080;-64
2022/01/10 07:12:30;;;;;;;26.30;13.52;;;;;;;;;;5015335;28;20045;-64
2022/01/10 07:14:56;;;;;;;24.10;14.05;;;;;;;;;;5029500;28;20046;-64
2022/01/10 07:17:22;;;;;;;25.67;14.10;;;;;;;;;;5016080;28;20303;-64
2022/01/10 07:19:49;;;;;;;25.95;13.32;;;;;;;;;;5023423;28;20525;-64
2022/01/10 07:22:15;;;;;;;20.42;13.27;;;;;;;;;;5019778;28;20067;-64
2022/01/10 07:24:42;;;;;;;26.13;15.10;;;;;;;;;;5011214;28;20546;-64
2022/01/10 07:27:08;;;;;;;23.77;14.18;;;;;;;;;;5027565;28;20052;-64
2022/01/10 07:29:34;;;;;;;25.17;13.57;;;;;;;;;;5017798;28;20536;-64
2022/01/10 07:32:01;;;;;;;25.13;14.07;;;;;;;;;;5021326;28;20054;-63
2022/01/10 07:34:27;;;;;;;29.50;17.27;;;;;;;;;;5019995;28;20064;-64
2022/01/10 07:36:53;;;;;;;41.70;24.33;;;;;;;;;;4999361;28;20082;-64
2022/01/10 07:39:19;;;;;;;36.08;20.95;;;;;;;;;;5019360;28;20057;-64
2022/01/10 07:41:46;;;;;;;34.55;19.27;;;;;;;;;;5015864;28;20639;-64
2022/01/10 07:44:12;;;;;;;30.15;16.65;;;;;;;;;;5023160;28;20057;-65
2022/01/10 07:46:39;;;;;;;34.47;16.17;;;;;;;;;;5014647;28;20057;-65
2022/01/10 07:49:05;;;;;;;38.47;16.27;;;;;;;;;;5025209;28;20049;-66
2022/01/10 07:51:31;;;;;;;27.40;16.20;;;;;;;;;;5008096;28;20064;-66
2022/01/10 07:53:59;;;;;;;29.35;16.73;;;;;;;;;;5019290;28;20413;-67
2022/01/10 07:56:26;;;;;;;35.42;17.38;;;;;;;;;;5027429;28;20084;-67
2022/01/10 07:58:52;;;;;;;26.52;15.25;;;;;;;;;;5017101;28;20046;-68
2022/01/10 08:01:19;;;;;;;29.08;16.10;;;;;;;;;;5027502;28;20053;-69
2022/01/10 08:03:47;;;;;;;29.08;15.93;;;;;;;;;;5012384;28;20061;-67
2022/01/10 08:06:13;;;;;;;28.83;15.00;;;;;;;;;;5018229;28;20045;-67
2022/01/10 08:08:40;;;;;;;25.95;15.23;;;;;;;;;;5014936;28;20550;-67
2022/01/10 08:11:06;;;;;;;27.30;15.95;;;;;;;;;;5006267;28;20064;-68
2022/01/10 08:13:32;;;;;;;29.80;15.43;;;;;;;;;;5022001;28;20061;-69
2022/01/10 08:15:59;;;;;;;26.75;15.18;;;;;;;;;;5015155;28;20046;-68
2022/01/10 08:18:25;;;;;;;34.33;15.55;;;;;;;;;;5018195;28;20072;-68
2022/01/10 08:20:51;;;;;;;26.45;16.23;;;;;;;;;;5011614;28;20053;-68
2022/01/10 08:23:18;;;;;;;33.92;17.63;;;;;;;;;;5020379;28;20045;-66
2022/01/10 08:25:44;;;;;;;27.73;15.77;;;;;;;;;;5015828;28;20509;-66
2022/01/10 08:28:10;;;;;;;32.90;15.77;;;;;;;;;;5005588;28;20505;-67
2022/01/10 08:30:37;;;;;;;30.95;16.42;;;;;;;;;;5024645;28;20072;-67
2022/01/10 08:33:03;;;;;;;31.42;16.30;;;;;;;;;;5008854;28;20045;-67
2022/01/10 08:35:30;;;;;;;33.22;17.05;;;;;;;;;;5020396;28;20573;-66
2022/01/10 08:37:56;;;;;;;35.42;16.95;;;;;;;;;;5021718;28;20046;-66
2022/01/10 08:40:28;;;;;;;31.60;16.70;;;;;;;;;;5025225;28;20056;-67
2022/01/10 08:42:54;;;;;;;33.45;15.93;;;;;;;;;;5014052;28;20049;-67
2022/01/10 08:45:20;;;;;;;30.67;16.58;;;;;;;;;;5024899;28;20582;-67
2022/01/10 08:47:47;;;;;;;34.53;16.58;;;;;;;;;;5009311;28;20041;-66
2022/01/10 08:50:14;;;;;;;29.90;16.45;;;;;;;;;;5016232;28;20075;-66
2022/01/10 08:52:40;;;;;;;31.33;16.70;;;;;;;;;;5024030;28;20056;-66
2022/01/10 08:55:08;;;;;;;26.90;15.60;;;;;;;;;;4997210;28;20051;-66
2022/01/10 08:57:35;;;;;;;30.87;16.23;;;;;;;;;;5024316;28;20046;-66
2022/01/10 09:00:04;;;;;;;27.02;16.55;;;;;;;;;;5013255;28;20293;-67
2022/01/10 09:02:31;;;;;;;27.25;16.30;;;;;;;;;;5017864;28;20049;-67
2022/01/10 09:04:57;;;;;;;26.67;16.02;;;;;;;;;;5019057;28;20723;-69
2022/01/10 09:07:23;;;;;;;26.40;15.80;;;;;;;;;;5019046;28;20076;-69
2022/01/10 09:09:50;;;;;;;27.63;15.98;;;;;;;;;;5020633;28;20058;-70
2022/01/10 09:12:16;;;;;;;30.85;16.92;;;;;;;;;;5020875;28;20053;-70
2022/01/10 09:14:42;;;;;;;30.80;17.05;;;;;;;;;;5017419;28;20064;-70
2022/01/10 09:17:09;;;;;;;35.38;17.67;;;;;;;;;;5015573;28;20760;-70
2022/01/10 09:19:35;;;;;;;29.00;18.17;;;;;;;;;;5022206;28;20128;-70
2022/01/10 09:22:02;;;;;;;31.42;17.65;;;;;;;;;;5029352;28;20207;-70
2022/01/10 09:24:28;;;;;;;31.55;17.98;;;;;;;;;;5020101;28;20054;-70
2022/01/10 09:26:56;;;;;;;38.95;19.20;;;;;;;;;;5008587;28;20049;-70
2022/01/10 09:29:23;;;;;;;40.80;21.27;;;;;;;;;;5013797;28;20053;-70
2022/01/10 09:31:49;;;;;;;38.53;20.10;;;;;;;;;;5025534;28;20068;-70
2022/01/10 09:34:15;;;;;;;36.78;20.73;;;;;;;;;;5018761;28;20062;-70
2022/01/10 09:36:42;;;;;;;42.33;20.33;;;;;;;;;;5026948;28;20052;-70
2022/01/10 09:39:09;;;;;;;39.53;20.67;;;;;;;;;;5030316;28;20068;-71
2022/01/10 09:41:36;;;;;;;38.67;21.48;;;;;;;;;;4997191;28;20041;-70
2022/01/10 09:44:03;;;;;;;49.15;21.27;;;;;;;;;;5021266;28;20278;-71
2022/01/10 09:46:30;;;;;;;39.65;20.17;;;;;;;;;;5019565;28;20071;-70
2022/01/10 09:48:59;;;;;;;34.83;19.02;;;;;;;;;;5025709;28;20076;-70
2022/01/10 09:51:27;;;;;;;38.38;19.88;;;;;;;;;;5020388;28;20081;-70
2022/01/10 09:53:54;;;;;;;31.73;19.77;;;;;;;;;;5025522;28;20045;-68
2022/01/10 09:56:21;;;;;;;38.05;22.15;;;;;;;;;;5020430;28;20479;-68
2022/01/10 09:58:47;;;;;;;35.40;20.63;;;;;;;;;;5017358;28;20130;-70
2022/01/10 10:01:16;;;;;;;30.75;19.88;;;;;;;;;;5026141;28;20041;-68
2022/01/10 10:03:44;;;;;;;36.13;21.55;;;;;;;;;;5021077;28;20464;-70
2022/01/10 10:06:11;;;;;;;42.22;21.55;;;;;;;;;;5021888;28;20049;-71
2022/01/10 10:08:38;;;;;;;42.28;22.52;;;;;;;;;;5016137;28;20085;-70
2022/01/10 10:11:06;;;;;;;34.80;21.63;;;;;;;;;;5014941;28;20049;-69
2022/01/10 10:13:40;;;;;;;37.17;21.25;;;;;;;;;;5031020;28;20133;-69
2022/01/10 10:16:12;;;;;;;37.78;21.83;;;;;;;;;;5016786;28;20353;-70
2022/01/10 10:18:39;;;;;;;42.10;22.55;;;;;;;;;;5028903;28;20131;-70
2022/01/10 10:21:13;;;;;;;36.67;22.52;;;;;;;;;;5020640;28;20046;-70
2022/01/10 10:23:41;;;;;;;35.45;21.65;;;;;;;;;;5022190;28;20045;-69
2022/01/10 10:26:07;;;;;;;39.25;21.85;;;;;;;;;;5014694;28;20037;-70
2022/01/10 10:28:35;;;;;;;46.30;22.92;;;;;;;;;;5028292;28;20053;-70
2022/01/10 10:31:02;;;;;;;39.85;20.73;;;;;;;;;;5019284;28;20042;-70
2022/01/10 10:33:28;;;;;;;34.72;19.35;;;;;;;;;;5022924;28;20551;-69
2022/01/10 10:35:56;;;;;;;32.38;19.73;;;;;;;;;;5019359;28;20479;-69
2022/01/10 10:38:24;;;;;;;42.88;21.48;;;;;;;;;;5015522;28;20511;-69
2022/01/10 10:40:50;;;;;;;38.17;20.13;;;;;;;;;;5026244;28;20052;-69
2022/01/10 10:43:16;;;;;;;33.55;19.15;;;;;;;;;;5021301;28;20430;-70
2022/01/10 10:45:46;;;;;;;42.60;20.60;;;;;;;;;;5019262;28;20060;-69
2022/01/10 10:48:14;;;;;;;41.85;20.08;;;;;;;;;;5022950;28;20418;-69
2022/01/10 10:50:42;;;;;;;32.72;18.88;;;;;;;;;;5016962;28;20076;-69
2022/01/10 10:53:10;;;;;;;37.25;20.88;;;;;;;;;;5022724;28;20048;-69
2022/01/10 10:55:38;;;;;;;37.80;20.20;;;;;;;;;;5014927;28;20045;-69
2022/01/10 10:58:06;;;;;;;37.97;19.10;;;;;;;;;;5024170;28;20064;-69
2022/01/10 11:00:32;;;;;;;42.47;19.92;;;;;;;;;;5018003;28;20522;-70
2022/01/10 11:02:59;;;;;;;37.28;19.88;;;;;;;;;;5022824;28;20053;-69
2022/01/10 11:05:26;;;;;;;34.95;18.95;;;;;;;;;;5018458;28;20049;-69
2022/01/10 11:07:53;;;;;;;34.70;18.75;;;;;;;;;;5022149;28;20044;-69
2022/01/10 11:10:19;;;;;;;37.55;20.15;;;;;;;;;;5025837;28;20049;-69
2022/01/10 11:12:50;;;;;;;35.38;17.08;;;;;;;;;;5021607;28;20052;-69
2022/01/10 11:15:17;;;;;;;35.90;20.67;;;;;;;;;;5023015;28;20414;-70
2022/01/10 11:17:43;;;;;;;38.85;22.35;;;;;;;;;;5013527;28;20049;-70
2022/01/10 11:20:20;;;;;;;43.63;22.10;;;;;;;;;;5027482;28;20045;-69
2022/01/10 11:22:48;;;;;;;42.38;21.40;;;;;;;;;;5016404;28;20535;-69
2022/01/10 11:25:20;;;;;;;29.83;18.98;;;;;;;;;;5026255;28;20050;-70
2022/01/10 11:27:46;;;;;;;37.17;19.85;;;;;;;;;;5021469;28;20049;-69
2022/01/10 11:30:22;;;;;;;38.90;20.60;;;;;;;;;;5012054;28;20049;-69
2022/01/10 11:32:56;;;;;;;35.35;20.02;;;;;;;;;;5026007;28;20251;-69
2022/01/10 11:35:44;;;;;;;35.60;20.08;;;;;;;;;;5012357;28;20060;-70
2022/01/10 11:38:19;;;;;;;35.47;19.05;;;;;;;;;;5025684;28;20141;-69
2022/01/10 11:40:49;;;;;;;34.80;20.10;;;;;;;;;;5014363;28;20060;-70
2022/01/10 11:43:26;;;;;;;37.22;21.70;;;;;;;;;;5016652;28;20064;-70
2022/01/10 11:46:37;;;;;;;37.22;20.55;;;;;;;;;;5012783;28;20085;-69
2022/01/10 11:49:15;;;;;;;37.88;19.23;;;;;;;;;;5023936;28;20048;-69
2022/01/10 11:51:43;;;;;;;33.28;17.17;;;;;;;;;;5014821;28;20057;-70
2022/01/10 11:54:16;;;;;;;40.67;19.25;;;;;;;;;;5025452;28;20053;-69
2022/01/10 11:56:44;;;;;;;35.90;18.45;;;;;;;;;;5018799;28;20046;-70
2022/01/10 11:59:21;;;;;;;37.25;19.20;;;;;;;;;;5014144;28;20509;-69
2022/01/10 12:01:48;;;;;;;37.72;19.50;;;;;;;;;;5026277;28;20049;-69
2022/01/10 12:04:15;;;;;;;43.70;20.17;;;;;;;;;;5018988;28;20041;-70
2022/01/10 12:06:42;;;;;;;37.42;19.10;;;;;;;;;;5023564;28;20045;-70
2022/01/10 12:09:09;;;;;;;39.80;18.92;;;;;;;;;;5019302;28;20076;-69
2022/01/10 12:11:37;;;;;;;39.53;19.00;;;;;;;;;;5016142;28;20139;-69
2022/01/10 12:14:06;;;;;;;38.67;17.95;;;;;;;;;;5025219;28;20049;-70
2022/01/10 12:16:32;;;;;;;;;;;;;;;;;;5015297;28;20056;-70
2022/01/10 12:18:59;;;;;;;36.10;18.88;;;;;;;;;;5024409;28;20706;-70
2022/01/10 12:21:26;;;;;;;43.03;19.05;;;;;;;;;;5017771;28;20475;-70
2022/01/10 12:23:52;;;;;;;33.28;18.10;;;;;;;;;;5017407;28;20313;-70
2022/01/10 12:26:20;;;;;;;32.30;19.88;;;;;;;;;;5010387;28;20054;-70
2022/01/10 12:28:51;;;;;;;34.60;18.80;;;;;;;;;;5021629;28;20052;-70
2022/01/10 12:31:19;;;;;;;45.30;19.80;;;;;;;;;;5010622;28;20045;-70
2022/01/10 12:33:46;;;;;;;36.97;18.85;;;;;;;;;;5012584;28;20055;-70
2022/01/10 12:36:12;;;;;;;43.00;20.52;;;;;;;;;;5027771;28;20052;-70
2022/01/10 12:38:39;;;;;;;38.08;19.38;;;;;;;;;;5013557;28;20067;-70
2022/01/10 12:41:06;;;;;;;44.65;19.85;;;;;;;;;;5017319;28;20131;-71
2022/01/10 12:43:32;;;;;;;37.20;19.17;;;;;;;;;;5012860;28;20053;-69
2022/01/10 12:45:59;;;;;;;35.85;18.25;;;;;;;;;;5023863;28;20632;-69
2022/01/10 12:48:28;;;;;;;37.38;18.98;;;;;;;;;;5022002;28;20100;-70
2022/01/10 12:50:55;;;;;;;30.63;17.10;;;;;;;;;;5019935;28;20046;-70
2022/01/10 12:53:22;;;;;;;33.53;17.25;;;;;;;;;;5016007;28;20295;-70
2022/01/10 12:55:48;;;;;;;32.53;16.77;;;;;;;;;;5015351;28;20626;-70
2022/01/10 12:58:14;;;;;;;36.00;16.55;;;;;;;;;;5020136;28;20052;-70
2022/01/10 13:00:42;;;;;;;33.75;15.82;;;;;;;;;;5016816;28;20502;-70
2022/01/10 13:03:09;;;;;;;27.33;15.47;;;;;;;;;;5021986;28;20409;-71
2022/01/10 13:05:35;;;;;;;28.55;15.38;;;;;;;;;;5019843;28;20386;-70
2022/01/10 13:08:02;;;;;;;33.35;16.13;;;;;;;;;;5010250;28;20506;-70
2022/01/10 13:10:33;;;;;;;32.92;16.40;;;;;;;;;;5026562;28;20058;-70
2022/01/10 13:13:02;;;;;;;23.95;13.88;;;;;;;;;;5000003;28;20586;-70
2022/01/10 13:15:37;;;;;;;30.00;14.80;;;;;;;;;;5011406;28;20071;-70
2022/01/10 13:18:05;;;;;;;30.50;15.07;;;;;;;;;;5011820;28;20061;-70
2022/01/10 13:20:32;;;;;;;31.40;15.57;;;;;;;;;;5016963;28;20049;-70
2022/01/10 13:23:01;;;;;;;28.25;15.20;;;;;;;;;;5017193;28;20617;-70
2022/01/10 13:25:31;;;;;;;29.90;14.93;;;;;;;;;;5020543;28;20049;-70
2022/01/10 13:28:01;;;;;;;29.60;16.42;;;;;;;;;;5015786;28;20052;-70
2022/01/10 13:30:28;;;;;;;30.88;16.50;;;;;;;;;;5016456;28;20442;-70
2022/01/10 13:32:55;;;;;;;28.30;17.05;;;;;;;;;;5022840;28;20077;-70
2022/01/10 13:35:22;;;;;;;34.53;19.20;;;;;;;;;;5004349;28;20057;-70
2022/01/10 13:37:55;;;;;;;30.70;18.58;;;;;;;;;;5019751;28;20053;-70
2022/01/10 13:40:23;;;;;;;33.80;18.70;;;;;;;;;;5020448;28;20128;-70
2022/01/10 13:42:50;;;;;;;32.08;18.02;;;;;;;;;;5018926;28;20059;-70
2022/01/10 13:45:18;;;;;;;35.20;19.00;;;;;;;;;;5021535;28;20497;-71
2022/01/10 13:47:48;;;;;;;36.17;21.13;;;;;;;;;;5014487;28;20274;-70
2022/01/10 13:50:26;;;;;;;33.40;19.80;;;;;;;;;;5022955;28;20050;-70
2022/01/10 13:53:01;;;;;;;35.22;19.45;;;;;;;;;;5015682;28;20053;-70
2022/01/10 13:55:28;;;;;;;33.97;19.63;;;;;;;;;;5023716;28;20053;-70
2022/01/10 13:57:54;;;;;;;32.00;19.30;;;;;;;;;;5015314;28;20056;-70
2022/01/10 14:00:24;;;;;;;35.88;18.73;;;;;;;;;;5020832;28;20474;-71
2022/01/10 14:02:51;;;;;;;35.13;18.92;;;;;;;;;;5015470;28;20045;-70
2022/01/10 14:05:21;;;;;;;30.40;19.35;;;;;;;;;;5015131;28;20049;-70
2022/01/10 14:07:48;;;;;;;30.77;18.17;;;;;;;;;;5027153;28;20550;-70
2022/01/10 14:10:14;;;;;;;30.88;18.10;;;;;;;;;;5018808;28;20064;-70
2022/01/10 14:12:41;;;;;;;28.23;17.55;;;;;;;;;;5026017;28;20061;-70
2022/01/10 14:15:08;;;;;;;28.50;16.90;;;;;;;;;;5016983;28;20056;-70
2022/01/10 14:17:34;;;;;;;29.00;17.42;;;;;;;;;;5023208;28;20073;-70
2022/01/10 14:20:00;;;;;;;29.52;16.67;;;;;;;;;;5025873;28;20056;-70
2022/01/10 14:22:27;;;;;;;34.17;19.98;;;;;;;;;;5026345;28;20057;-71
2022/01/10 14:24:53;;;;;;;32.95;18.55;;;;;;;;;;5025928;28;20041;-70
2022/01/10 14:27:20;;;;;;;41.03;20.02;;;;;;;;;;5020064;28;20057;-71
2022/01/10 14:29:46;;;;;;;30.42;18.63;;;;;;;;;;5016710;28;20430;-70
2022/01/10 14:32:13;;;;;;;31.02;18.63;;;;;;;;;;5018458;28;20072;-71